createdAt,value
2022-10-03T00:00:32.623Z,10.99
2022-10-03T00:01:32.601Z,10.97
2022-10-03T00:02:32.544Z,10.92
2022-10-03T00:03:32.492Z,10.93
2022-10-03T00:04:32.431Z,10.99
2022-10-03T00:05:32.468Z,10.96
2022-10-03T00:06:32.355Z,10.99
2022-10-03T00:07:32.337Z,11.05
2022-10-03T00:08:32.294Z,11.02
2022-10-03T00:09:32.261Z,11.04
2022-10-03T00:10:32.227Z,11.00
2022-10-03T00:11:32.266Z,11.04
2022-10-03T00:12:32.154Z,10.97
2022-10-03T00:13:32.125Z,10.94
2022-10-03T00:14:32.096Z,10.93
2022-10-03T00:15:32.054Z,11.00
2022-10-03T00:16:32.067Z,11.04
2022-10-03T00:17:32.048Z,11.05
2022-10-03T00:18:31.960Z,10.96
2022-10-03T00:19:31.933Z,10.97
2022-10-03T00:20:31.993Z,11.02
2022-10-03T00:21:31.928Z,11.12
2022-10-03T00:22:31.834Z,11.14
2022-10-03T00:23:31.793Z,11.23
2022-10-03T00:24:31.760Z,11.22
2022-10-03T00:25:31.716Z,11.19
2022-10-03T00:26:31.686Z,11.25
2022-10-03T00:27:31.708Z,11.27
2022-10-03T00:28:31.667Z,11.22
2022-10-03T00:29:31.604Z,11.26
2022-10-03T00:30:31.558Z,11.30
2022-10-03T00:31:31.561Z,11.40
2022-10-03T00:32:31.550Z,11.36
2022-10-03T00:33:31.449Z,11.33
2022-10-03T00:34:31.421Z,11.35
2022-10-03T00:35:31.448Z,11.44
2022-10-03T00:36:31.365Z,11.47
2022-10-03T00:37:31.323Z,11.44
2022-10-03T00:38:31.294Z,11.48
2022-10-03T00:39:31.253Z,11.50
2022-10-03T00:40:31.279Z,11.55
2022-10-03T00:41:31.194Z,11.54
2022-10-03T00:42:31.154Z,11.52
2022-10-03T00:43:31.184Z,11.50
2022-10-03T00:44:31.091Z,11.59
2022-10-03T00:45:31.057Z,11.55
2022-10-03T00:46:31.066Z,11.62
2022-10-03T00:47:30.983Z,11.68
2022-10-03T00:48:31.028Z,11.69
2022-10-03T00:49:30.929Z,11.78
2022-10-03T00:50:30.941Z,11.81
2022-10-03T00:51:30.867Z,11.80
2022-10-03T00:52:30.823Z,11.84
2022-10-03T00:53:30.797Z,11.91
2022-10-03T00:54:30.814Z,11.95
2022-10-03T00:55:30.790Z,12.00
2022-10-03T00:56:30.692Z,12.09
2022-10-03T00:57:30.658Z,12.00
2022-10-03T00:58:30.626Z,12.13
2022-10-03T00:59:30.590Z,12.12
2022-10-03T01:00:30.634Z,12.18
2022-10-03T01:01:30.580Z,12.20
2022-10-03T01:02:30.503Z,12.20
2022-10-03T01:03:30.456Z,12.22
2022-10-03T01:04:30.427Z,12.28
2022-10-03T01:05:30.389Z,12.24
2022-10-03T01:06:30.361Z,12.25
2022-10-03T01:07:30.382Z,12.28
2022-10-03T01:08:30.289Z,12.22
2022-10-03T01:09:30.318Z,12.27
2022-10-03T01:10:30.234Z,12.31
2022-10-03T01:11:30.193Z,12.36
2022-10-03T01:12:30.158Z,12.32
2022-10-03T01:13:30.125Z,12.28
2022-10-03T01:14:30.164Z,12.35
2022-10-03T01:15:30.083Z,12.32
2022-10-03T01:16:30.091Z,12.35
2022-10-03T01:17:30.005Z,12.37
2022-10-03T01:18:29.967Z,12.37
2022-10-03T01:19:29.936Z,12.42
2022-10-03T01:20:29.948Z,12.42
2022-10-03T01:21:29.858Z,12.42
2022-10-03T01:22:29.826Z,12.43
2022-10-03T01:23:29.798Z,12.43
2022-10-03T01:24:29.772Z,12.42
2022-10-03T01:25:29.790Z,12.45
2022-10-03T01:26:29.702Z,12.42
2022-10-03T01:27:29.664Z,12.45
2022-10-03T01:28:29.671Z,12.40
2022-10-03T01:29:29.601Z,12.42
2022-10-03T01:30:29.630Z,12.46
2022-10-03T01:31:29.566Z,12.43
2022-10-03T01:32:29.509Z,12.43
2022-10-03T01:33:29.476Z,12.45
2022-10-03T01:34:29.437Z,12.40
2022-10-03T01:35:29.404Z,12.42
2022-10-03T01:36:29.431Z,12.45
2022-10-03T01:37:29.402Z,12.47
2022-10-03T01:38:29.298Z,12.50
2022-10-03T01:39:29.268Z,12.43
2022-10-03T01:40:29.243Z,12.46
2022-10-03T01:41:29.206Z,12.43
2022-10-03T01:42:29.177Z,12.49
2022-10-03T01:43:29.221Z,12.45
2022-10-03T01:44:29.106Z,12.47
2022-10-03T01:45:29.101Z,12.43
2022-10-03T01:46:29.226Z,12.45
2022-10-03T01:47:29.022Z,12.40
2022-10-03T01:48:28.992Z,12.40
2022-10-03T01:49:28.956Z,12.42
2022-10-03T01:50:28.916Z,12.43
2022-10-03T01:51:28.942Z,12.36
2022-10-03T01:52:28.848Z,12.43
2022-10-03T01:53:28.822Z,12.45
2022-10-03T01:54:28.791Z,12.40
2022-10-03T01:55:28.747Z,12.35
2022-10-03T01:56:28.716Z,12.37
2022-10-03T01:57:28.737Z,12.37
2022-10-03T01:58:28.666Z,12.37
2022-10-03T01:59:28.616Z,12.35
2022-10-03T02:00:28.625Z,12.39
2022-10-03T02:01:28.553Z,12.24
2022-10-03T02:02:28.705Z,12.27
2022-10-03T02:03:28.491Z,12.27
2022-10-03T02:04:28.460Z,12.31
2022-10-03T02:05:28.421Z,12.24
2022-10-03T02:06:28.388Z,12.18
2022-10-03T02:07:28.467Z,12.22
2022-10-03T02:08:36.000Z,12.09
2022-10-03T02:09:28.288Z,12.06
2022-10-03T02:10:28.255Z,12.17
2022-10-03T02:11:28.218Z,12.13
2022-10-03T02:12:28.189Z,12.09
2022-10-03T02:13:28.232Z,12.09
2022-10-03T02:14:28.115Z,12.10
2022-10-03T02:15:28.093Z,12.17
2022-10-03T02:16:28.131Z,12.09
2022-10-03T02:17:28.052Z,12.12
2022-10-03T02:18:27.991Z,12.12
2022-10-03T02:19:28.011Z,12.18
2022-10-03T02:20:27.921Z,12.10
2022-10-03T02:21:27.887Z,12.17
2022-10-03T02:22:27.857Z,12.18
2022-10-03T02:23:27.831Z,12.12
2022-10-03T02:24:27.862Z,12.20
2022-10-03T02:25:27.761Z,12.21
2022-10-03T02:26:27.723Z,12.21
2022-10-03T02:27:27.691Z,12.27
2022-10-03T02:28:27.717Z,12.27
2022-10-03T02:29:27.635Z,12.31
2022-10-03T02:30:27.657Z,12.32
2022-10-03T02:31:27.607Z,12.29
2022-10-03T02:32:27.531Z,12.32
2022-10-03T02:33:27.494Z,12.31
2022-10-03T02:34:27.540Z,12.27
2022-10-03T02:35:27.432Z,12.25
2022-10-03T02:36:27.401Z,12.27
2022-10-03T02:37:27.369Z,12.32
2022-10-03T02:38:27.331Z,12.28
2022-10-03T02:39:27.318Z,12.20
2022-10-03T02:40:27.327Z,12.22
2022-10-03T02:41:27.295Z,12.32
2022-10-03T02:42:27.203Z,12.27
2022-10-03T02:43:27.169Z,12.32
2022-10-03T02:44:27.136Z,12.25
2022-10-03T02:45:27.212Z,12.22
2022-10-03T02:46:27.072Z,12.27
2022-10-03T02:47:27.039Z,12.35
2022-10-03T02:48:31.852Z,12.32
2022-10-03T02:49:26.970Z,12.31
2022-10-03T02:50:26.938Z,12.25
2022-10-03T02:51:26.979Z,12.25
2022-10-03T02:52:26.874Z,12.29
2022-10-03T02:53:26.838Z,12.28
2022-10-03T02:54:26.803Z,12.28
2022-10-03T02:55:26.788Z,12.28
2022-10-03T02:56:26.743Z,12.28
2022-10-03T02:57:26.783Z,12.25
2022-10-03T02:58:26.673Z,12.25
2022-10-03T02:59:26.641Z,12.18
2022-10-03T03:00:26.615Z,12.27
2022-10-03T03:01:26.666Z,12.17
2022-10-03T03:02:26.630Z,12.20
2022-10-03T03:03:26.572Z,12.10
2022-10-03T03:04:27.016Z,12.13
2022-10-03T03:05:26.445Z,12.07
2022-10-03T03:06:26.411Z,11.97
2022-10-03T03:07:26.383Z,11.91
2022-10-03T03:08:26.910Z,11.91
2022-10-03T03:09:26.374Z,11.84
2022-10-03T03:10:26.589Z,11.83
2022-10-03T03:11:26.276Z,11.81
2022-10-03T03:12:26.212Z,11.83
2022-10-03T03:13:26.189Z,11.83
2022-10-03T03:14:26.146Z,11.81
2022-10-03T03:15:26.119Z,11.84
2022-10-03T03:16:26.197Z,11.88
2022-10-03T03:17:26.051Z,11.95
2022-10-03T03:18:26.019Z,12.00
2022-10-03T03:19:25.995Z,11.97
2022-10-03T03:20:25.956Z,11.95
2022-10-03T03:21:25.996Z,11.99
2022-10-03T03:22:25.886Z,12.06
2022-10-03T03:23:25.907Z,11.91
2022-10-03T03:24:25.817Z,11.99
2022-10-03T03:25:25.797Z,12.10
2022-10-03T03:26:25.754Z,12.20
2022-10-03T03:27:25.720Z,12.22
2022-10-03T03:28:25.790Z,12.09
2022-10-03T03:29:25.672Z,12.20
2022-10-03T03:30:25.627Z,12.21
2022-10-03T03:31:25.595Z,12.22
2022-10-03T03:32:25.567Z,12.13
2022-10-03T03:33:25.600Z,12.15
2022-10-03T03:34:25.496Z,12.18
2022-10-03T03:35:25.459Z,12.18
2022-10-03T03:36:25.424Z,12.17
2022-10-03T03:37:25.393Z,12.20
2022-10-03T03:38:25.357Z,12.28
2022-10-03T03:39:25.386Z,12.29
2022-10-03T03:40:25.299Z,12.28
2022-10-03T03:41:25.262Z,12.18
2022-10-03T03:42:25.237Z,12.17
2022-10-03T03:43:25.199Z,12.12
2022-10-03T03:44:25.235Z,12.20
2022-10-03T03:45:25.174Z,12.17
2022-10-03T03:46:25.100Z,12.25
2022-10-03T03:47:25.067Z,12.20
2022-10-03T03:48:25.029Z,12.18
2022-10-03T03:49:25.060Z,12.20
2022-10-03T03:50:24.983Z,12.21
2022-10-03T03:51:24.935Z,12.17
2022-10-03T03:52:24.900Z,12.12
2022-10-03T03:53:24.869Z,12.09
2022-10-03T03:54:24.899Z,12.07
2022-10-03T03:55:24.802Z,12.17
2022-10-03T03:56:24.770Z,12.07
2022-10-03T03:57:24.740Z,12.09
2022-10-03T03:58:24.701Z,12.15
2022-10-03T03:59:24.668Z,12.07
2022-10-03T04:00:24.697Z,12.09
2022-10-03T04:01:24.688Z,12.07
2022-10-03T04:02:24.614Z,12.09
2022-10-03T04:03:24.543Z,12.09
2022-10-03T04:04:24.508Z,12.12
2022-10-03T04:05:24.536Z,12.07
2022-10-03T04:06:24.442Z,12.12
2022-10-03T04:07:24.407Z,12.13
2022-10-03T04:08:24.373Z,12.17
2022-10-03T04:09:24.346Z,12.22
2022-10-03T04:10:24.380Z,12.22
2022-10-03T04:11:24.278Z,12.07
2022-10-03T04:12:24.243Z,12.15
2022-10-03T04:13:24.211Z,12.06
2022-10-03T04:14:24.175Z,12.09
2022-10-03T04:15:24.226Z,12.18
2022-10-03T04:16:24.145Z,12.22
2022-10-03T04:17:24.085Z,12.17
2022-10-03T04:18:24.048Z,12.13
2022-10-03T04:19:24.011Z,12.10
2022-10-03T04:20:23.980Z,12.21
2022-10-03T04:21:24.035Z,12.13
2022-10-03T04:22:23.913Z,12.10
2022-10-03T04:23:23.888Z,12.17
2022-10-03T04:24:23.856Z,12.10
2022-10-03T04:25:23.818Z,12.15
2022-10-03T04:26:23.851Z,12.13
2022-10-03T04:27:23.753Z,12.18
2022-10-03T04:28:23.730Z,12.15
2022-10-03T04:29:23.784Z,12.17
2022-10-03T04:30:23.654Z,12.09
2022-10-03T04:31:23.655Z,12.12
2022-10-03T04:32:23.644Z,12.07
2022-10-03T04:33:23.553Z,12.09
2022-10-03T04:34:23.589Z,12.13
2022-10-03T04:35:23.486Z,12.13
2022-10-03T04:36:23.453Z,12.15
2022-10-03T04:37:23.472Z,12.18
2022-10-03T04:38:23.386Z,12.06
2022-10-03T04:39:23.355Z,12.07
2022-10-03T04:40:23.436Z,12.04
2022-10-03T04:41:23.930Z,11.97
2022-10-03T04:42:23.254Z,11.84
2022-10-03T04:43:23.223Z,11.80
2022-10-03T04:44:23.194Z,11.77
2022-10-03T04:45:23.171Z,11.69
2022-10-03T04:46:23.188Z,11.65
2022-10-03T04:47:23.094Z,11.55
2022-10-03T04:48:23.058Z,11.60
2022-10-03T04:49:23.036Z,11.54
2022-10-03T04:50:22.996Z,11.50
2022-10-03T04:51:23.935Z,11.48
2022-10-03T04:52:22.990Z,11.47
2022-10-03T04:53:22.898Z,11.36
2022-10-03T04:54:22.861Z,11.40
2022-10-03T04:55:22.830Z,11.43
2022-10-03T04:56:22.793Z,11.36
2022-10-03T04:57:22.758Z,11.40
2022-10-03T04:58:22.786Z,11.29
2022-10-03T04:59:22.694Z,11.26
2022-10-03T05:00:22.668Z,11.27
2022-10-03T05:01:22.681Z,11.30
2022-10-03T05:02:22.705Z,11.29
2022-10-03T05:03:22.576Z,11.23
2022-10-03T05:04:22.591Z,11.23
2022-10-03T05:05:22.496Z,11.22
2022-10-03T05:06:22.463Z,11.25
2022-10-03T05:07:22.436Z,11.26
2022-10-03T05:08:22.395Z,11.27
2022-10-03T05:09:22.367Z,11.27
2022-10-03T05:10:22.398Z,11.29
2022-10-03T05:11:22.294Z,11.29
2022-10-03T05:12:22.609Z,11.29
2022-10-03T05:13:22.236Z,11.32
2022-10-03T05:14:22.200Z,11.27
2022-10-03T05:15:22.181Z,11.32
2022-10-03T05:16:22.173Z,11.35
2022-10-03T05:17:22.148Z,11.47
2022-10-03T05:18:26.664Z,11.48
2022-10-03T05:19:22.030Z,11.44
2022-10-03T05:20:21.998Z,11.50
2022-10-03T05:21:21.963Z,11.55
2022-10-03T05:22:21.979Z,11.65
2022-10-03T05:23:21.897Z,11.59
2022-10-03T05:24:21.864Z,11.72
2022-10-03T05:25:21.835Z,11.72
2022-10-03T05:26:44.012Z,11.78
2022-10-03T05:27:21.766Z,11.83
2022-10-03T05:28:21.820Z,11.84
2022-10-03T05:29:21.697Z,11.86
2022-10-03T05:30:21.663Z,11.99
2022-10-03T05:31:21.676Z,11.94
2022-10-03T05:32:21.665Z,11.97
2022-10-03T05:33:21.560Z,12.09
2022-10-03T05:34:21.528Z,11.99
2022-10-03T05:35:21.496Z,12.06
2022-10-03T05:36:21.461Z,12.10
2022-10-03T05:37:21.496Z,12.18
2022-10-03T05:38:21.400Z,12.15
2022-10-03T05:39:21.364Z,12.17
2022-10-03T05:40:21.332Z,12.25
2022-10-03T05:41:25.809Z,12.22
2022-10-03T05:42:23.678Z,12.35
2022-10-03T05:43:21.292Z,12.27
2022-10-03T05:44:21.195Z,12.27
2022-10-03T05:45:21.163Z,12.27
2022-10-03T05:46:21.202Z,12.21
2022-10-03T05:47:21.100Z,12.24
2022-10-03T05:48:21.093Z,12.17
2022-10-03T05:49:21.090Z,12.20
2022-10-03T05:50:21.082Z,12.17
2022-10-03T05:51:20.963Z,12.25
2022-10-03T05:52:20.934Z,12.28
2022-10-03T05:53:20.898Z,12.25
2022-10-03T05:54:20.874Z,12.25
2022-10-03T05:55:20.833Z,12.27
2022-10-03T05:56:20.870Z,12.28
2022-10-03T05:57:20.768Z,12.37
2022-10-03T05:58:20.755Z,12.39
2022-10-03T05:59:20.709Z,12.45
2022-10-03T06:00:20.671Z,12.40
2022-10-03T06:01:20.714Z,12.46
2022-10-03T06:02:20.706Z,12.35
2022-10-03T06:03:20.625Z,12.32
2022-10-03T06:04:20.542Z,12.27
2022-10-03T06:05:20.502Z,12.22
2022-10-03T06:06:20.475Z,12.36
2022-10-03T06:07:20.509Z,12.29
2022-10-03T06:08:20.413Z,12.28
2022-10-03T06:09:20.379Z,12.28
2022-10-03T06:10:20.345Z,12.27
2022-10-03T06:11:20.310Z,12.21
2022-10-03T06:12:20.320Z,12.18
2022-10-03T06:13:20.302Z,12.21
2022-10-03T06:14:20.219Z,12.17
2022-10-03T06:15:20.182Z,12.17
2022-10-03T06:16:20.229Z,12.15
2022-10-03T06:17:20.113Z,12.27
2022-10-03T06:18:20.240Z,12.31
2022-10-03T06:19:20.064Z,12.25
2022-10-03T06:20:20.024Z,12.27
2022-10-03T06:21:20.011Z,12.25
2022-10-03T06:22:19.950Z,12.36
2022-10-03T06:23:19.918Z,12.46
2022-10-03T06:24:20.126Z,12.49
2022-10-03T06:25:19.860Z,12.57
2022-10-03T06:26:19.819Z,12.55
2022-10-03T06:27:19.792Z,12.60
2022-10-03T06:28:19.813Z,12.60
2022-10-03T06:29:20.129Z,12.58
2022-10-03T06:30:20.580Z,12.58
2022-10-03T06:31:19.713Z,12.60
2022-10-03T06:32:19.624Z,12.58
2022-10-03T06:33:19.592Z,12.55
2022-10-03T06:34:19.610Z,12.55
2022-10-03T06:35:19.586Z,12.58
2022-10-03T06:36:19.511Z,12.55
2022-10-03T06:37:19.456Z,12.70
2022-10-03T06:38:19.430Z,12.79
2022-10-03T06:39:19.396Z,12.87
2022-10-03T06:40:19.363Z,12.93
2022-10-03T06:41:19.466Z,12.94
2022-10-03T06:42:19.325Z,13.01
2022-10-03T06:43:19.317Z,13.18
2022-10-03T06:44:19.250Z,13.20
2022-10-03T06:45:19.196Z,13.19
2022-10-03T06:46:19.272Z,13.19
2022-10-03T06:47:19.191Z,13.25
2022-10-03T06:48:19.101Z,13.20
2022-10-03T06:49:19.070Z,13.20
2022-10-03T06:50:19.042Z,13.22
2022-10-03T06:51:19.062Z,13.20
2022-10-03T06:52:18.974Z,13.35
2022-10-03T06:53:18.940Z,13.30
2022-10-03T06:54:18.909Z,13.22
2022-10-03T06:55:18.891Z,13.33
2022-10-03T06:56:18.857Z,13.19
2022-10-03T06:57:18.872Z,13.22
2022-10-03T06:58:18.777Z,13.28
2022-10-03T06:59:18.765Z,13.23
2022-10-03T07:00:18.734Z,13.25
2022-10-03T07:01:18.747Z,13.31
2022-10-03T07:02:18.812Z,13.19
2022-10-03T07:03:18.660Z,13.28
2022-10-03T07:04:18.600Z,13.22
2022-10-03T07:05:18.561Z,13.37
2022-10-03T07:06:18.602Z,13.33
2022-10-03T07:07:18.491Z,13.33
2022-10-03T07:08:18.457Z,13.47
2022-10-03T07:09:18.423Z,13.50
2022-10-03T07:10:18.398Z,13.44
2022-10-03T07:11:18.379Z,13.54
2022-10-03T07:12:18.411Z,13.50
2022-10-03T07:13:18.298Z,13.52
2022-10-03T07:14:18.267Z,13.53
2022-10-03T07:15:18.241Z,13.54
2022-10-03T07:16:26.937Z,13.50
2022-10-03T07:17:18.232Z,13.52
2022-10-03T07:18:18.204Z,13.49
2022-10-03T07:19:18.105Z,13.44
2022-10-03T07:20:18.071Z,13.47
2022-10-03T07:21:18.038Z,13.44
2022-10-03T07:22:18.046Z,13.54
2022-10-03T07:23:17.977Z,13.60
2022-10-03T07:24:18.007Z,13.65
2022-10-03T07:25:17.920Z,13.59
2022-10-03T07:26:17.886Z,13.59
2022-10-03T07:27:17.868Z,13.62
2022-10-03T07:28:17.921Z,13.59
2022-10-03T07:29:17.791Z,13.54
2022-10-03T07:30:17.821Z,13.68
2022-10-03T07:31:17.768Z,13.70
2022-10-03T07:32:17.695Z,13.70
2022-10-03T07:33:17.656Z,13.71
2022-10-03T07:34:17.635Z,13.72
2022-10-03T07:35:17.594Z,13.74
2022-10-03T07:36:17.636Z,13.89
2022-10-03T07:37:17.530Z,13.87
2022-10-03T07:38:17.587Z,13.87
2022-10-03T07:39:17.503Z,14.00
2022-10-03T07:40:17.439Z,13.99
2022-10-03T07:41:17.403Z,14.12
2022-10-03T07:42:17.370Z,14.20
2022-10-03T07:43:17.403Z,14.22
2022-10-03T07:44:17.324Z,14.26
2022-10-03T07:45:17.281Z,14.40
2022-10-03T07:46:17.279Z,14.33
2022-10-03T07:47:17.208Z,14.20
2022-10-03T07:48:17.256Z,14.17
2022-10-03T07:49:18.666Z,14.25
2022-10-03T07:50:17.119Z,14.18
2022-10-03T07:51:17.097Z,14.37
2022-10-03T07:52:17.058Z,14.29
2022-10-03T07:53:17.023Z,14.29
2022-10-03T07:54:17.058Z,14.10
2022-10-03T07:55:16.964Z,14.10
2022-10-03T07:56:17.481Z,14.12
2022-10-03T07:57:16.901Z,14.04
2022-10-03T07:58:16.867Z,14.05
2022-10-03T07:59:16.841Z,14.04
2022-10-03T08:00:16.869Z,14.07
2022-10-03T08:01:16.778Z,14.12
2022-10-03T08:02:16.778Z,14.18
2022-10-03T08:03:16.778Z,14.07
2022-10-03T08:04:17.218Z,14.11
2022-10-03T08:05:16.648Z,14.07
2022-10-03T08:06:16.615Z,14.12
2022-10-03T08:07:16.593Z,14.08
2022-10-03T08:08:16.555Z,14.11
2022-10-03T08:09:23.640Z,14.23
2022-10-03T08:10:16.487Z,14.30
2022-10-03T08:11:16.460Z,14.43
2022-10-03T08:12:16.425Z,14.28
2022-10-03T08:13:16.402Z,14.32
2022-10-03T08:14:16.373Z,14.26
2022-10-03T08:15:16.411Z,14.33
2022-10-03T08:16:16.343Z,14.41
2022-10-03T08:17:16.283Z,14.35
2022-10-03T08:18:16.240Z,14.35
2022-10-03T08:19:16.206Z,14.50
2022-10-03T08:20:16.174Z,14.43
2022-10-03T08:21:16.203Z,14.40
2022-10-03T08:22:16.118Z,14.47
2022-10-03T08:23:16.078Z,14.40
2022-10-03T08:24:16.049Z,14.33
2022-10-03T08:25:16.639Z,14.36
2022-10-03T08:26:16.050Z,14.35
2022-10-03T08:27:15.961Z,14.37
2022-10-03T08:28:15.981Z,14.28
2022-10-03T08:29:15.902Z,14.25
2022-10-03T08:30:15.870Z,14.35
2022-10-03T08:31:15.900Z,14.37
2022-10-03T08:32:16.187Z,14.23
2022-10-03T08:33:15.773Z,14.28
2022-10-03T08:34:15.741Z,14.30
2022-10-03T08:35:15.705Z,14.29
2022-10-03T08:36:15.673Z,14.40
2022-10-03T08:37:15.650Z,14.33
2022-10-03T08:38:15.668Z,14.43
2022-10-03T08:39:15.583Z,14.66
2022-10-03T08:40:15.546Z,14.82
2022-10-03T08:41:15.533Z,14.94
2022-10-03T08:42:15.495Z,14.97
2022-10-03T08:43:15.457Z,15.00
2022-10-03T08:44:15.523Z,15.18
2022-10-03T08:45:15.396Z,15.31
2022-10-03T08:46:15.405Z,15.29
2022-10-03T08:47:15.336Z,15.29
2022-10-03T08:48:15.326Z,15.21
2022-10-03T08:49:15.368Z,15.17
2022-10-03T08:50:15.314Z,15.07
2022-10-03T08:51:15.233Z,15.21
2022-10-03T08:52:15.183Z,15.37
2022-10-03T08:53:15.158Z,15.37
2022-10-03T08:54:15.120Z,15.27
2022-10-03T08:55:15.089Z,15.21
2022-10-03T08:56:15.133Z,15.21
2022-10-03T08:57:15.025Z,15.21
2022-10-03T08:58:15.000Z,15.10
2022-10-03T08:59:14.971Z,15.24
2022-10-03T09:00:14.938Z,15.43
2022-10-03T09:01:14.925Z,15.54
2022-10-03T09:02:15.002Z,15.43
2022-10-03T09:03:33.071Z,15.39
2022-10-03T09:04:14.816Z,15.43
2022-10-03T09:05:14.788Z,15.52
2022-10-03T09:06:14.752Z,15.55
2022-10-03T09:07:18.886Z,15.59
2022-10-03T09:08:14.757Z,15.67
2022-10-03T09:09:14.657Z,15.61
2022-10-03T09:10:14.630Z,15.44
2022-10-03T09:11:14.623Z,15.43
2022-10-03T09:12:14.570Z,15.46
2022-10-03T09:13:14.541Z,15.73
2022-10-03T09:14:14.560Z,15.72
2022-10-03T09:15:14.554Z,15.72
2022-10-03T09:16:18.398Z,15.58
2022-10-03T09:17:14.423Z,15.61
2022-10-03T09:18:14.390Z,15.57
2022-10-03T09:19:14.371Z,15.73
2022-10-03T09:20:14.325Z,15.79
2022-10-03T09:21:14.356Z,15.94
2022-10-03T09:22:14.263Z,16.08
2022-10-03T09:23:14.244Z,16.08
2022-10-03T09:24:14.207Z,15.95
2022-10-03T09:25:14.177Z,15.84
2022-10-03T09:26:14.142Z,15.77
2022-10-03T09:27:14.177Z,15.79
2022-10-03T09:28:14.117Z,15.79
2022-10-03T09:29:14.077Z,15.73
2022-10-03T09:30:14.100Z,15.73
2022-10-03T09:31:14.017Z,15.65
2022-10-03T09:32:13.980Z,15.70
2022-10-03T09:33:13.936Z,15.76
2022-10-03T09:34:13.914Z,15.91
2022-10-03T09:35:13.936Z,15.94
2022-10-03T09:36:13.857Z,15.95
2022-10-03T09:37:13.836Z,15.76
2022-10-03T09:38:13.778Z,15.73
2022-10-03T09:39:13.749Z,15.72
2022-10-03T09:40:13.787Z,15.72
2022-10-03T09:41:13.700Z,15.95
2022-10-03T09:42:13.673Z,16.04
2022-10-03T09:43:13.637Z,16.12
2022-10-03T09:44:13.601Z,15.95
2022-10-03T09:45:13.580Z,15.94
2022-10-03T09:46:13.642Z,15.95
2022-10-03T09:47:13.532Z,16.15
2022-10-03T09:48:13.478Z,16.36
2022-10-03T09:49:13.452Z,16.24
2022-10-03T09:50:13.421Z,16.28
2022-10-03T09:51:13.391Z,16.49
2022-10-03T09:52:13.419Z,16.57
2022-10-03T09:53:13.334Z,16.60
2022-10-03T09:54:13.303Z,16.50
2022-10-03T09:55:13.271Z,16.49
2022-10-03T09:56:13.238Z,16.50
2022-10-03T09:57:13.265Z,16.38
2022-10-03T09:58:13.203Z,16.50
2022-10-03T09:59:13.215Z,16.36
2022-10-03T10:00:13.122Z,16.49
2022-10-03T10:01:13.211Z,16.56
2022-10-03T10:02:13.163Z,16.64
2022-10-03T10:03:13.043Z,16.58
2022-10-03T10:04:13.061Z,16.64
2022-10-03T10:05:13.007Z,16.53
2022-10-03T10:06:12.947Z,16.39
2022-10-03T10:07:12.916Z,16.15
2022-10-03T10:08:12.951Z,15.97
2022-10-03T10:09:12.950Z,15.91
2022-10-03T10:10:12.869Z,16.00
2022-10-03T10:11:12.795Z,16.23
2022-10-03T10:12:12.859Z,16.28
2022-10-03T10:13:12.800Z,16.50
2022-10-03T10:14:12.801Z,16.51
2022-10-03T10:15:12.685Z,16.53
2022-10-03T10:16:12.765Z,16.56
2022-10-03T10:17:12.633Z,16.49
2022-10-03T10:18:12.587Z,16.57
2022-10-03T10:19:12.562Z,16.74
2022-10-03T10:20:12.609Z,16.96
2022-10-03T10:21:12.510Z,17.20
2022-10-03T10:22:12.474Z,17.44
2022-10-03T10:23:12.447Z,17.30
2022-10-03T10:24:12.410Z,17.26
2022-10-03T10:25:12.380Z,17.23
2022-10-03T10:26:12.410Z,17.11
2022-10-03T10:27:12.320Z,17.11
2022-10-03T10:28:12.326Z,17.11
2022-10-03T10:29:12.376Z,17.01
2022-10-03T10:30:12.252Z,17.01
2022-10-03T10:31:12.253Z,16.94
2022-10-03T10:32:12.175Z,16.94
2022-10-03T10:33:12.151Z,17.11
2022-10-03T10:34:12.117Z,17.19
2022-10-03T10:35:12.176Z,17.08
2022-10-03T10:36:12.066Z,16.91
2022-10-03T10:37:12.032Z,16.75
2022-10-03T10:38:12.010Z,16.83
2022-10-03T10:39:11.981Z,16.75
2022-10-03T10:40:11.941Z,16.78
2022-10-03T10:41:11.995Z,16.78
2022-10-03T10:42:11.908Z,16.74
2022-10-03T10:43:15.534Z,16.81
2022-10-03T10:44:11.834Z,16.84
2022-10-03T10:45:11.799Z,17.12
2022-10-03T10:46:11.860Z,17.12
2022-10-03T10:47:11.788Z,16.72
2022-10-03T10:48:11.731Z,16.50
2022-10-03T10:49:11.681Z,16.50
2022-10-03T10:50:11.660Z,16.41
2022-10-03T10:51:11.687Z,16.26
2022-10-03T10:52:11.622Z,16.10
2022-10-03T10:53:11.568Z,15.86
2022-10-03T10:54:11.586Z,15.58
2022-10-03T10:55:11.507Z,15.36
2022-10-03T10:56:11.548Z,15.18
2022-10-03T10:57:11.544Z,15.07
2022-10-03T10:58:11.411Z,14.99
2022-10-03T10:59:11.389Z,14.97
2022-10-03T11:00:11.364Z,14.88
2022-10-03T11:01:11.436Z,14.94
2022-10-03T11:02:11.358Z,15.09
2022-10-03T11:03:11.285Z,15.17
2022-10-03T11:04:11.269Z,15.28
2022-10-03T11:05:11.212Z,15.40
2022-10-03T11:06:11.183Z,15.58
2022-10-03T11:07:11.221Z,15.77
2022-10-03T11:08:11.113Z,15.79
2022-10-03T11:09:11.089Z,15.73
2022-10-03T11:10:11.057Z,15.91
2022-10-03T11:11:11.063Z,15.94
2022-10-03T11:12:11.061Z,16.02
2022-10-03T11:13:10.967Z,16.26
2022-10-03T11:14:11.008Z,16.46
2022-10-03T11:15:10.904Z,16.61
2022-10-03T11:16:10.928Z,16.57
2022-10-03T11:17:10.848Z,16.68
2022-10-03T11:18:10.890Z,16.74
2022-10-03T11:19:10.784Z,16.69
2022-10-03T11:20:10.756Z,16.68
2022-10-03T11:21:10.743Z,16.69
2022-10-03T11:22:10.693Z,16.74
2022-10-03T11:23:10.672Z,16.75
2022-10-03T11:24:10.686Z,16.81
2022-10-03T11:25:10.617Z,16.89
2022-10-03T11:26:10.624Z,16.76
2022-10-03T11:27:10.552Z,16.65
2022-10-03T11:28:10.579Z,16.47
2022-10-03T11:29:10.551Z,16.54
2022-10-03T11:30:10.505Z,16.72
2022-10-03T11:31:10.455Z,16.86
2022-10-03T11:32:10.412Z,16.89
2022-10-03T11:33:10.369Z,16.75
2022-10-03T11:34:10.344Z,16.84
2022-10-03T11:35:10.546Z,16.96
2022-10-03T11:36:10.403Z,17.05
2022-10-03T11:37:10.253Z,16.96
2022-10-03T11:38:10.224Z,17.04
2022-10-03T11:39:10.207Z,17.01
2022-10-03T11:40:10.170Z,17.04
2022-10-03T11:41:10.234Z,16.72
2022-10-03T11:42:12.572Z,16.96
2022-10-03T11:43:10.078Z,17.01
2022-10-03T11:44:10.058Z,16.99
2022-10-03T11:45:10.096Z,17.06
2022-10-03T11:46:10.106Z,17.12
2022-10-03T11:47:09.965Z,17.14
2022-10-03T11:48:09.932Z,16.87
2022-10-03T11:49:09.923Z,16.72
2022-10-03T11:50:09.930Z,16.69
2022-10-03T11:51:09.851Z,16.53
2022-10-03T11:52:09.826Z,16.42
2022-10-03T11:53:09.788Z,16.47
2022-10-03T11:54:30.116Z,16.41
2022-10-03T11:55:09.791Z,16.33
2022-10-03T11:56:09.701Z,16.24
2022-10-03T11:57:09.676Z,16.51
2022-10-03T11:58:09.640Z,16.58
2022-10-03T11:59:09.681Z,16.57
2022-10-03T12:00:09.588Z,16.66
2022-10-03T12:01:09.558Z,16.76
2022-10-03T12:02:09.573Z,16.75
2022-10-03T12:03:09.571Z,16.54
2022-10-03T12:04:09.464Z,16.54
2022-10-03T12:05:09.541Z,16.49
2022-10-03T12:06:09.427Z,16.33
2022-10-03T12:07:09.397Z,16.49
2022-10-03T12:08:09.354Z,16.23
2022-10-03T12:09:09.319Z,16.02
2022-10-03T12:10:09.288Z,16.05
2022-10-03T12:11:09.304Z,15.92
2022-10-03T12:12:09.245Z,16.02
2022-10-03T12:13:09.281Z,16.04
2022-10-03T12:14:11.452Z,16.08
2022-10-03T12:15:09.131Z,16.09
2022-10-03T12:16:09.148Z,16.09
2022-10-03T12:17:09.077Z,16.20
2022-10-03T12:18:09.046Z,16.17
2022-10-03T12:19:09.080Z,16.33
2022-10-03T12:20:08.993Z,16.49
2022-10-03T12:21:09.015Z,16.58
2022-10-03T12:22:08.925Z,16.69
2022-10-03T12:23:08.891Z,16.72
2022-10-03T12:24:08.876Z,16.78
2022-10-03T12:25:08.844Z,16.81
2022-10-03T12:26:08.876Z,16.99
2022-10-03T12:27:08.768Z,16.99
2022-10-03T12:28:08.811Z,17.19
2022-10-03T12:29:08.721Z,17.14
2022-10-03T12:30:08.683Z,17.30
2022-10-03T12:31:08.659Z,17.24
2022-10-03T12:32:08.760Z,17.14
2022-10-03T12:33:08.589Z,17.20
2022-10-03T12:34:08.563Z,17.11
2022-10-03T12:35:08.536Z,16.91
2022-10-03T12:36:08.514Z,16.90
2022-10-03T12:37:08.628Z,16.71
2022-10-03T12:38:08.517Z,16.72
2022-10-03T12:39:08.457Z,16.91
2022-10-03T12:40:08.400Z,16.99
2022-10-03T12:41:08.353Z,17.04
2022-10-03T12:42:08.350Z,16.94
2022-10-03T12:43:08.324Z,16.93
2022-10-03T12:44:08.852Z,16.90
2022-10-03T12:45:08.255Z,16.81
2022-10-03T12:46:08.263Z,16.68
2022-10-03T12:47:08.184Z,16.65
2022-10-03T12:48:08.175Z,16.58
2022-10-03T12:49:08.126Z,16.46
2022-10-03T12:50:08.147Z,16.43
2022-10-03T12:51:08.060Z,16.47
2022-10-03T12:52:08.092Z,16.43